createdAt,value
2023-03-06T00:01:08.945Z,98727.13
2023-03-06T00:03:11.442Z,98730.84
2023-03-06T00:05:15.460Z,98726.00
2023-03-06T00:07:17.675Z,98663.31
2023-03-06T00:09:20.015Z,98689.47
2023-03-06T00:11:22.705Z,98717.25
2023-03-06T00:13:26.950Z,98770.22
2023-03-06T00:15:30.158Z,98773.50
2023-03-06T00:17:32.677Z,98717.00
2023-03-06T00:19:34.999Z,98673.59
2023-03-06T00:21:37.774Z,98721.75
2023-03-06T00:23:41.474Z,98730.75
2023-03-06T00:25:45.818Z,98776.78
2023-03-06T00:27:49.543Z,98714.72
2023-03-06T00:29:56.946Z,98710.34
2023-03-06T00:31:59.211Z,98772.13
2023-03-06T00:34:02.894Z,98692.59
2023-03-06T00:36:06.405Z,98768.03
2023-03-06T00:38:12.785Z,98725.28
2023-03-06T00:40:19.263Z,98731.63
2023-03-06T00:42:22.120Z,98715.00
2023-03-06T00:44:25.100Z,98690.59
2023-03-06T00:46:27.328Z,98747.41
2023-03-06T00:48:30.326Z,98657.84
2023-03-06T00:50:32.999Z,98665.28
2023-03-06T00:52:35.884Z,98729.88
2023-03-06T00:54:38.560Z,98652.75
2023-03-06T00:56:40.808Z,98651.34
2023-03-06T00:58:43.263Z,98696.13
2023-03-06T01:00:46.074Z,98661.09
2023-03-06T01:02:48.525Z,98675.88
2023-03-06T01:04:50.808Z,98661.66
2023-03-06T01:06:53.398Z,98664.84
2023-03-06T01:08:55.720Z,98712.41
2023-03-06T01:11:00.963Z,98718.41
2023-03-06T01:13:03.262Z,98694.66
2023-03-06T01:15:06.301Z,98709.13
2023-03-06T01:17:10.671Z,98627.69
2023-03-06T01:19:13.016Z,98639.31
2023-03-06T01:21:15.526Z,98713.97
2023-03-06T01:23:17.886Z,98701.78
2023-03-06T01:25:21.360Z,98677.78
2023-03-06T01:27:26.334Z,98702.50
2023-03-06T01:29:29.851Z,98680.38
2023-03-06T01:31:32.769Z,98737.72
2023-03-06T01:33:36.300Z,98695.88
2023-03-06T01:35:39.667Z,98700.94
2023-03-06T01:37:42.485Z,98704.69
2023-03-06T01:39:45.033Z,98678.22
2023-03-06T01:41:47.262Z,98694.69
2023-03-06T01:43:50.025Z,98693.31
2023-03-06T01:45:53.103Z,98735.25
2023-03-06T01:47:55.661Z,98693.31
2023-03-06T01:50:01.265Z,98670.50
2023-03-06T01:52:09.174Z,98680.03
2023-03-06T01:54:16.255Z,98707.16
2023-03-06T01:56:19.332Z,98674.56
2023-03-06T01:58:23.092Z,98618.94
2023-03-06T02:00:28.685Z,98640.03
2023-03-06T02:02:31.576Z,98635.03
2023-03-06T02:04:34.788Z,98636.47
2023-03-06T02:06:40.276Z,98662.59
2023-03-06T02:08:42.749Z,98665.13
2023-03-06T02:11:16.325Z,98656.22
2023-03-06T02:13:18.928Z,98608.84
2023-03-06T02:15:25.208Z,98690.78
2023-03-06T02:17:30.678Z,98634.56
2023-03-06T02:19:54.362Z,98719.06
2023-03-06T02:21:56.793Z,98720.22
2023-03-06T02:24:24.185Z,98656.53
2023-03-06T02:26:28.350Z,98656.72
2023-03-06T02:28:31.037Z,98602.69
2023-03-06T02:30:35.797Z,98688.63
2023-03-06T02:32:38.269Z,98639.03
2023-03-06T02:34:40.498Z,98715.53
2023-03-06T02:36:47.732Z,98645.75
2023-03-06T02:38:51.767Z,98641.34
2023-03-06T02:40:58.355Z,98652.16
2023-03-06T02:43:05.921Z,98665.59
2023-03-06T02:45:12.895Z,98693.63
2023-03-06T02:47:16.269Z,98598.91
2023-03-06T02:49:18.527Z,98603.16
2023-03-06T02:51:21.081Z,98694.47
2023-03-06T02:53:24.115Z,98673.81
2023-03-06T02:55:27.116Z,98635.31
2023-03-06T02:57:31.038Z,98613.81
2023-03-06T02:59:35.490Z,98638.38
2023-03-06T03:01:39.716Z,98684.31
2023-03-06T03:03:42.433Z,98580.78
2023-03-06T03:05:45.704Z,98590.78
2023-03-06T03:07:58.189Z,98656.97
2023-03-06T03:10:00.713Z,98643.22
2023-03-06T03:12:08.091Z,98618.88
2023-03-06T03:14:10.443Z,98631.91
2023-03-06T03:16:15.890Z,98680.22
2023-03-06T03:18:18.402Z,98567.78
2023-03-06T03:20:22.509Z,98682.19
2023-03-06T03:22:25.465Z,98616.91
2023-03-06T03:24:27.770Z,98573.94
2023-03-06T03:26:30.842Z,98655.91
2023-03-06T03:28:42.543Z,98620.50
2023-03-06T03:30:47.090Z,98665.22
2023-03-06T03:32:49.439Z,98573.34
2023-03-06T03:34:52.528Z,98556.56
2023-03-06T03:36:55.334Z,98576.00
2023-03-06T03:38:57.823Z,98547.00
2023-03-06T03:41:04.397Z,98590.13
2023-03-06T03:43:07.766Z,98590.13
2023-03-06T03:45:11.401Z,98537.75
2023-03-06T03:47:14.337Z,98573.78
2023-03-06T03:49:17.204Z,98542.41
2023-03-06T03:51:20.159Z,98554.53
2023-03-06T03:53:26.949Z,98587.81
2023-03-06T03:55:29.648Z,98615.41
2023-03-06T03:57:32.602Z,98542.34
2023-03-06T03:59:36.084Z,98578.34
2023-03-06T04:02:05.374Z,98509.84
2023-03-06T04:04:13.194Z,98575.88
2023-03-06T04:06:17.594Z,98540.63
2023-03-06T04:08:21.996Z,98595.50
2023-03-06T04:10:25.444Z,98548.97
2023-03-06T04:12:28.335Z,98560.00
2023-03-06T04:14:31.576Z,98561.47
2023-03-06T04:16:34.770Z,98573.44
2023-03-06T04:18:37.277Z,98596.19
2023-03-06T04:20:41.261Z,98538.00
2023-03-06T04:22:43.707Z,98544.97
2023-03-06T04:24:50.026Z,98552.97
2023-03-06T04:26:53.686Z,98582.25
2023-03-06T04:28:56.963Z,98554.03
2023-03-06T04:31:00.216Z,98586.38
2023-03-06T04:33:03.857Z,98568.66
2023-03-06T04:35:06.609Z,98555.75
2023-03-06T04:37:25.103Z,98486.22
2023-03-06T04:39:28.589Z,98518.34
2023-03-06T04:41:31.639Z,98521.19
2023-03-06T04:43:34.264Z,98512.81
2023-03-06T04:45:38.519Z,98496.75
2023-03-06T04:47:41.580Z,98565.53
2023-03-06T04:49:44.225Z,98560.75
2023-03-06T04:51:46.430Z,98504.97
2023-03-06T04:53:48.626Z,98535.47
2023-03-06T04:55:51.021Z,98456.09
2023-03-06T04:57:54.143Z,98521.56
2023-03-06T04:59:56.441Z,98487.63
2023-03-06T05:01:58.895Z,98527.03
2023-03-06T05:04:01.568Z,98493.09
2023-03-06T05:06:04.530Z,98546.66
2023-03-06T05:08:07.606Z,98510.19
2023-03-06T05:10:16.266Z,98471.28
2023-03-06T05:12:18.623Z,98493.00
2023-03-06T05:14:21.092Z,98523.63
2023-03-06T05:16:23.852Z,98467.13
2023-03-06T05:18:26.263Z,98458.50
2023-03-06T05:20:32.554Z,98563.97
2023-03-06T05:22:35.152Z,98523.09
2023-03-06T05:24:37.882Z,98493.81
2023-03-06T05:26:40.360Z,98499.94
2023-03-06T05:28:42.748Z,98503.03
2023-03-06T05:30:45.303Z,98548.00
2023-03-06T05:32:48.437Z,98539.72
2023-03-06T05:34:51.140Z,98526.56
2023-03-06T05:36:53.641Z,98456.63
2023-03-06T05:38:56.206Z,98482.06
2023-03-06T05:40:58.691Z,98516.69
2023-03-06T05:43:01.263Z,98519.03
2023-03-06T05:45:04.742Z,98522.41
2023-03-06T05:47:08.936Z,98442.28
2023-03-06T05:49:12.150Z,98506.03
2023-03-06T05:51:14.441Z,98514.69
2023-03-06T05:53:16.872Z,98489.25
2023-03-06T05:55:21.305Z,98487.78
2023-03-06T05:57:24.885Z,98496.88
2023-03-06T05:59:28.730Z,98513.22
2023-03-06T06:01:31.485Z,98515.50
2023-03-06T06:03:33.913Z,98518.50
2023-03-06T06:05:40.243Z,98561.22
2023-03-06T06:07:42.785Z,98496.16
2023-03-06T06:09:46.511Z,98554.22
2023-03-06T06:12:00.816Z,98496.16
2023-03-06T06:14:03.230Z,98540.78
2023-03-06T06:16:12.052Z,98475.84
2023-03-06T06:18:14.919Z,98554.72
2023-03-06T06:20:17.728Z,98547.88
2023-03-06T06:22:20.131Z,98513.66
2023-03-06T06:24:25.357Z,98487.22
2023-03-06T06:26:28.072Z,98498.50
2023-03-06T06:28:31.839Z,98530.00
2023-03-06T06:30:34.772Z,98508.84
2023-03-06T06:32:38.368Z,98584.59
2023-03-06T06:34:41.154Z,98572.03
2023-03-06T06:36:43.793Z,98580.31
2023-03-06T06:38:47.061Z,98544.50
2023-03-06T06:41:19.344Z,98549.69
2023-03-06T06:43:12.599Z,98516.63
2023-03-06T06:45:15.095Z,98592.44
2023-03-06T06:47:22.898Z,98564.06
2023-03-06T06:49:26.255Z,98519.75
2023-03-06T06:51:32.646Z,98591.69
2023-03-06T06:53:34.791Z,98536.09
2023-03-06T06:55:37.976Z,98533.47
2023-03-06T06:57:43.048Z,98543.47
2023-03-06T06:59:45.857Z,98526.91
2023-03-06T07:01:48.736Z,98533.28
2023-03-06T07:03:51.781Z,98534.53
2023-03-06T07:05:56.580Z,98532.91
2023-03-06T07:07:59.162Z,98589.59
2023-03-06T07:10:01.857Z,98530.13
2023-03-06T07:12:04.287Z,98558.94
2023-03-06T07:14:06.979Z,98550.63
2023-03-06T07:16:09.970Z,98550.84
2023-03-06T07:18:12.464Z,98518.06
2023-03-06T07:20:16.347Z,98548.00
2023-03-06T07:22:19.093Z,98573.13
2023-03-06T07:24:21.533Z,98563.94
2023-03-06T07:26:24.951Z,98552.69
2023-03-06T07:28:27.411Z,98557.63
2023-03-06T07:30:29.798Z,98541.59
2023-03-06T07:32:32.136Z,98538.44
2023-03-06T07:34:34.841Z,98542.03
2023-03-06T07:36:37.327Z,98537.84
2023-03-06T07:38:39.710Z,98564.03
2023-03-06T07:40:42.544Z,98498.66
2023-03-06T07:42:44.892Z,98517.91
2023-03-06T07:44:51.335Z,98553.53
2023-03-06T07:46:54.033Z,98553.47
2023-03-06T07:48:58.928Z,98544.09
2023-03-06T07:51:05.126Z,98499.03
2023-03-06T07:53:08.163Z,98538.44
2023-03-06T07:55:11.790Z,98501.53
2023-03-06T07:57:14.654Z,98559.34
2023-03-06T07:59:17.085Z,98529.22
2023-03-06T08:01:24.506Z,98548.00
2023-03-06T08:03:27.282Z,98517.72
2023-03-06T08:05:30.259Z,98546.94
2023-03-06T08:07:32.966Z,98537.22
2023-03-06T08:09:36.344Z,98533.91
2023-03-06T08:11:38.821Z,98562.41
2023-03-06T08:13:41.960Z,98571.75
2023-03-06T08:15:49.541Z,98570.13
2023-03-06T08:17:53.226Z,98551.59
2023-03-06T08:19:55.864Z,98534.03
2023-03-06T08:21:58.161Z,98562.69
2023-03-06T08:24:00.648Z,98533.31
2023-03-06T08:26:06.350Z,98504.66
2023-03-06T08:28:08.770Z,98552.19
2023-03-06T08:30:12.778Z,98514.56
2023-03-06T08:32:15.504Z,98484.91
2023-03-06T08:34:20.950Z,98539.88
2023-03-06T08:36:24.363Z,98577.75
2023-03-06T08:38:26.830Z,98533.16
2023-03-06T08:40:30.890Z,98538.09
2023-03-06T08:42:33.322Z,98515.66
2023-03-06T08:44:36.069Z,98549.28
2023-03-06T08:46:38.696Z,98543.59
2023-03-06T08:48:42.018Z,98556.19
2023-03-06T08:50:44.840Z,98560.59
2023-03-06T08:52:47.245Z,98545.25
2023-03-06T08:54:49.977Z,98525.94
2023-03-06T08:56:54.408Z,98593.00
2023-03-06T08:58:58.972Z,98545.16
2023-03-06T09:01:01.445Z,98542.59
2023-03-06T09:03:05.026Z,98554.69
2023-03-06T09:05:09.214Z,98566.91
2023-03-06T09:07:11.566Z,98541.09
2023-03-06T09:09:14.624Z,98535.59
2023-03-06T09:11:17.088Z,98500.69
2023-03-06T09:13:19.997Z,98521.41
2023-03-06T09:15:23.985Z,98549.00
2023-03-06T09:17:26.519Z,98554.81
2023-03-06T09:19:29.727Z,98512.81
2023-03-06T09:21:32.440Z,98561.81
2023-03-06T09:23:36.100Z,98549.59
2023-03-06T09:25:38.681Z,98544.94
2023-03-06T09:27:41.616Z,98507.69
2023-03-06T09:29:44.093Z,98557.50
2023-03-06T09:31:46.506Z,98535.25
2023-03-06T09:33:48.833Z,98546.78
2023-03-06T09:35:57.536Z,98509.09
2023-03-06T09:38:00.116Z,98517.78
2023-03-06T09:40:05.286Z,98542.06
2023-03-06T09:42:09.264Z,98540.88
2023-03-06T09:44:16.889Z,98563.88
2023-03-06T09:46:33.341Z,98520.00
2023-03-06T09:48:59.161Z,98541.88
2023-03-06T09:51:39.751Z,98478.41
2023-03-06T09:54:15.339Z,98565.47
2023-03-06T09:56:23.732Z,98545.75
2023-03-06T09:58:30.590Z,98538.19
2023-03-06T10:01:04.937Z,98487.31
2023-03-06T10:03:36.609Z,98553.25
2023-03-06T10:05:44.317Z,98491.09
2023-03-06T10:07:53.388Z,98522.63
2023-03-06T10:10:03.334Z,98504.06
2023-03-06T10:12:19.434Z,98489.66
2023-03-06T10:14:46.511Z,98540.25
2023-03-06T10:16:51.138Z,98465.94
2023-03-06T10:18:56.880Z,98499.66
2023-03-06T10:21:18.774Z,98493.72
2023-03-06T10:23:45.857Z,98489.66
2023-03-06T10:26:02.340Z,98501.59
2023-03-06T10:28:18.548Z,98539.78
2023-03-06T10:30:58.529Z,98528.00
2023-03-06T10:33:27.152Z,98435.63
2023-03-06T10:35:40.761Z,98503.34
2023-03-06T10:37:43.577Z,98485.78
2023-03-06T10:39:46.867Z,98495.38
2023-03-06T10:41:50.391Z,98500.94
2023-03-06T10:44:02.372Z,98528.69
2023-03-06T10:46:06.646Z,98495.50
2023-03-06T10:48:12.385Z,98517.03
2023-03-06T10:50:25.483Z,98514.88
2023-03-06T10:52:35.127Z,98515.66
2023-03-06T10:54:40.554Z,98493.66
2023-03-06T10:56:44.574Z,98469.13
2023-03-06T10:58:46.978Z,98464.50
2023-03-06T11:01:19.874Z,98460.75
2023-03-06T11:03:25.169Z,98453.28
2023-03-06T11:05:27.957Z,98426.22
2023-03-06T11:07:32.980Z,98430.09
2023-03-06T11:09:36.693Z,98453.38
2023-03-06T11:11:39.071Z,98464.06
2023-03-06T11:13:44.586Z,98487.94
2023-03-06T11:16:07.632Z,98454.09
2023-03-06T11:18:09.972Z,98487.16
2023-03-06T11:20:20.379Z,98454.81
2023-03-06T11:22:23.212Z,98453.31
2023-03-06T11:24:26.122Z,98457.09
2023-03-06T11:26:35.013Z,98440.75
2023-03-06T11:29:02.041Z,98445.25
2023-03-06T11:31:09.018Z,98396.97
2023-03-06T11:33:28.886Z,98413.66
2023-03-06T11:35:38.816Z,98406.09
2023-03-06T11:37:57.952Z,98446.41
2023-03-06T11:40:36.257Z,98429.34
2023-03-06T11:42:50.192Z,98400.78
2023-03-06T11:45:03.045Z,98437.38
2023-03-06T11:47:20.109Z,98392.16
2023-03-06T11:49:33.489Z,98383.84
2023-03-06T11:51:42.923Z,98434.69
2023-03-06T11:53:45.650Z,98396.84
2023-03-06T11:56:04.008Z,98421.50
2023-03-06T11:58:12.808Z,98414.97
2023-03-06T12:00:27.800Z,98412.03
2023-03-06T12:02:43.244Z,98395.56
2023-03-06T12:05:05.361Z,98394.59
2023-03-06T12:07:37.566Z,98412.97
2023-03-06T12:09:49.785Z,98372.94
2023-03-06T12:12:29.952Z,98355.41
2023-03-06T12:14:43.644Z,98361.78
2023-03-06T12:17:28.977Z,98351.47
2023-03-06T12:20:00.563Z,98386.50
2023-03-06T12:22:24.904Z,98342.13
2023-03-06T12:25:17.806Z,98381.81
2023-03-06T12:27:47.871Z,98335.59
2023-03-06T12:30:28.481Z,98373.28
2023-03-06T12:32:52.712Z,98375.91
2023-03-06T12:35:21.460Z,98290.66
2023-03-06T12:37:56.204Z,98367.16
2023-03-06T12:40:19.742Z,98367.53
2023-03-06T12:42:41.179Z,98333.38
2023-03-06T12:44:49.640Z,98362.75
2023-03-06T12:47:03.072Z,98332.97
2023-03-06T12:49:32.895Z,98314.81
2023-03-06T12:51:36.469Z,98317.31
2023-03-06T12:53:41.314Z,98322.41
2023-03-06T12:55:49.484Z,98318.50
2023-03-06T12:57:53.123Z,98332.78
2023-03-06T12:59:56.136Z,98321.72
2023-03-06T13:02:09.036Z,98362.22
2023-03-06T13:04:52.973Z,98382.34
2023-03-06T13:07:15.797Z,98343.19
2023-03-06T13:09:26.703Z,98353.22
2023-03-06T13:11:50.332Z,98324.56
2023-03-06T13:13:53.994Z,98290.78
2023-03-06T13:16:02.453Z,98389.47
2023-03-06T13:18:22.962Z,98386.50
2023-03-06T13:20:39.576Z,98372.34
2023-03-06T13:22:47.157Z,98363.56
2023-03-06T13:25:30.702Z,98386.84
2023-03-06T13:27:54.963Z,98381.44
2023-03-06T13:30:06.475Z,98326.78
2023-03-06T13:32:14.844Z,98366.41
2023-03-06T13:34:39.150Z,98369.25
2023-03-06T13:36:41.944Z,98318.16
2023-03-06T13:38:44.364Z,98366.44
2023-03-06T13:40:47.018Z,98283.53
2023-03-06T13:42:52.358Z,98368.06
2023-03-06T13:44:56.831Z,98324.50
2023-03-06T13:47:02.898Z,98325.19
2023-03-06T13:49:08.165Z,98365.09
2023-03-06T13:51:25.705Z,98285.53
2023-03-06T13:53:46.930Z,98361.28
2023-03-06T13:56:21.333Z,98365.44
2023-03-06T13:58:32.534Z,98355.34
2023-03-06T14:01:13.784Z,98301.78
2023-03-06T14:03:35.064Z,98346.03
2023-03-06T14:05:47.369Z,98329.31
2023-03-06T14:08:24.418Z,98351.13
2023-03-06T14:10:27.105Z,98309.03
2023-03-06T14:12:36.071Z,98302.41
2023-03-06T14:14:43.464Z,98308.53
2023-03-06T14:16:51.001Z,98281.06
2023-03-06T14:18:59.403Z,98281.66
2023-03-06T14:21:05.054Z,98313.72
2023-03-06T14:23:42.791Z,98351.09
2023-03-06T14:25:46.763Z,98313.72
2023-03-06T14:27:53.555Z,98311.59
2023-03-06T14:30:09.118Z,98279.50
2023-03-06T14:32:12.544Z,98323.78
2023-03-06T14:34:17.777Z,98349.91
2023-03-06T14:36:23.955Z,98343.81
2023-03-06T14:38:28.792Z,98328.03
2023-03-06T14:40:36.580Z,98303.41
2023-03-06T14:42:39.109Z,98289.97
2023-03-06T14:44:41.948Z,98318.28
2023-03-06T14:46:46.979Z,98275.63
2023-03-06T14:48:50.290Z,98309.81
2023-03-06T14:50:56.474Z,98309.53
2023-03-06T14:53:04.552Z,98298.53
2023-03-06T14:55:16.264Z,98318.41
2023-03-06T14:57:22.347Z,98333.06
2023-03-06T14:59:28.871Z,98310.03
2023-03-06T15:01:41.341Z,98312.22
2023-03-06T15:03:48.937Z,98313.06
2023-03-06T15:05:52.530Z,98311.72
2023-03-06T15:08:01.426Z,98319.53
2023-03-06T15:10:06.844Z,98320.66
2023-03-06T15:12:21.698Z,98349.97
2023-03-06T15:14:33.994Z,98315.28
2023-03-06T15:16:36.585Z,98298.34
2023-03-06T15:19:05.159Z,98293.78
2023-03-06T15:21:10.650Z,98342.13
2023-03-06T15:23:34.733Z,98265.78
2023-03-06T15:25:37.378Z,98302.03
2023-03-06T15:27:39.921Z,98298.78
2023-03-06T15:29:42.371Z,98282.09
2023-03-06T15:31:46.476Z,98275.75
2023-03-06T15:34:06.889Z,98349.91
2023-03-06T15:36:31.747Z,98351.38
2023-03-06T15:38:42.221Z,98348.81
2023-03-06T15:40:58.663Z,98303.53
2023-03-06T15:43:01.868Z,98270.59
2023-03-06T15:45:16.347Z,98307.03
2023-03-06T15:47:19.447Z,98318.66
2023-03-06T15:49:22.330Z,98341.44
2023-03-06T15:51:25.860Z,98327.47
2023-03-06T15:53:28.844Z,98288.72
2023-03-06T15:55:32.916Z,98294.41
2023-03-06T15:57:35.387Z,98345.03
2023-03-06T15:59:43.604Z,98304.53
2023-03-06T16:01:46.118Z,98278.22
2023-03-06T16:03:49.836Z,98303.97
2023-03-06T16:05:52.380Z,98290.69
2023-03-06T16:07:55.789Z,98318.28
2023-03-06T16:09:58.156Z,98285.78
2023-03-06T16:12:00.759Z,98319.34
2023-03-06T16:14:04.224Z,98256.53
2023-03-06T16:16:07.660Z,98328.88
2023-03-06T16:18:12.517Z,98316.91
2023-03-06T16:20:20.444Z,98341.28
2023-03-06T16:22:22.822Z,98312.53
2023-03-06T16:24:27.021Z,98262.13
2023-03-06T16:26:34.994Z,98337.72
2023-03-06T16:28:40.930Z,98285.72
2023-03-06T16:30:44.771Z,98305.34
2023-03-06T16:32:47.684Z,98304.06
2023-03-06T16:34:50.169Z,98313.59
2023-03-06T16:36:53.011Z,98254.19
2023-03-06T16:38:55.524Z,98353.97
2023-03-06T16:40:57.894Z,98303.56
2023-03-06T16:43:00.656Z,98342.38
2023-03-06T16:45:03.486Z,98284.34
2023-03-06T16:47:05.921Z,98291.44
2023-03-06T16:49:14.060Z,98318.88
2023-03-06T16:51:19.874Z,98292.53
2023-03-06T16:53:22.336Z,98315.53
2023-03-06T16:55:27.166Z,98316.00
2023-03-06T16:57:35.806Z,98326.00
2023-03-06T16:59:38.294Z,98309.75
2023-03-06T17:01:43.517Z,98311.34
2023-03-06T17:03:46.898Z,98306.63
2023-03-06T17:05:49.375Z,98285.59
2023-03-06T17:07:52.233Z,98335.50
2023-03-06T17:09:54.812Z,98345.75
2023-03-06T17:11:57.245Z,98289.66
2023-03-06T17:13:59.614Z,98292.56
2023-03-06T17:16:02.444Z,98291.88
2023-03-06T17:18:05.505Z,98320.44
2023-03-06T17:20:09.215Z,98305.59
2023-03-06T17:22:11.733Z,98331.72
2023-03-06T17:24:14.227Z,98348.72
2023-03-06T17:26:19.320Z,98320.25
2023-03-06T17:28:22.164Z,98357.53
2023-03-06T17:30:24.741Z,98338.34
2023-03-06T17:32:28.822Z,98343.22
2023-03-06T17:34:31.253Z,98324.31
2023-03-06T17:36:33.794Z,98321.50
2023-03-06T17:38:37.200Z,98359.88
2023-03-06T17:40:39.496Z,98341.75
2023-03-06T17:42:42.505Z,98336.50
2023-03-06T17:44:45.149Z,98367.03
2023-03-06T17:46:47.782Z,98343.00
2023-03-06T17:48:50.282Z,98344.63
2023-03-06T17:50:56.777Z,98346.63
2023-03-06T17:52:59.451Z,98279.25
2023-03-06T17:55:02.064Z,98368.59
2023-03-06T17:57:06.005Z,98361.16
2023-03-06T17:59:09.172Z,98330.13
2023-03-06T18:01:17.865Z,98348.84
2023-03-06T18:03:20.457Z,98300.25
2023-03-06T18:05:23.154Z,98308.06
2023-03-06T18:07:25.768Z,98305.84
2023-03-06T18:09:28.355Z,98325.81
2023-03-06T18:11:32.058Z,98336.41
2023-03-06T18:13:36.677Z,98332.09
2023-03-06T18:15:41.148Z,98376.03
2023-03-06T18:17:43.661Z,98296.25
2023-03-06T18:19:46.318Z,98291.78
2023-03-06T18:21:48.887Z,98380.59
2023-03-06T18:23:51.834Z,98330.25
2023-03-06T18:26:08.288Z,98336.16
2023-03-06T18:28:13.757Z,98357.34
2023-03-06T18:30:16.773Z,98333.53
2023-03-06T18:32:19.416Z,98316.75
2023-03-06T18:34:22.406Z,98356.06
2023-03-06T18:36:28.155Z,98310.34
2023-03-06T18:38:31.326Z,98313.13
2023-03-06T18:40:34.346Z,98340.09
2023-03-06T18:42:37.194Z,98365.44
2023-03-06T18:44:39.704Z,98314.28
2023-03-06T18:46:42.753Z,98309.38
2023-03-06T18:48:45.383Z,98358.19
2023-03-06T18:50:48.182Z,98322.00
2023-03-06T18:52:50.802Z,98343.00
2023-03-06T18:54:53.887Z,98299.97
2023-03-06T18:56:56.547Z,98273.41
2023-03-06T18:59:07.674Z,98312.72
2023-03-06T19:01:10.711Z,98313.38
2023-03-06T19:03:13.610Z,98336.66
2023-03-06T19:05:17.755Z,98322.00
2023-03-06T19:07:20.224Z,98307.06
2023-03-06T19:09:22.688Z,98302.25
2023-03-06T19:11:27.326Z,98276.53
2023-03-06T19:13:30.858Z,98296.50
2023-03-06T19:15:34.210Z,98360.25
2023-03-06T19:17:38.011Z,98355.81
2023-03-06T19:19:40.831Z,98310.38
2023-03-06T19:21:43.448Z,98299.00
2023-03-06T19:23:46.789Z,98317.75
2023-03-06T19:25:56.909Z,98306.78
2023-03-06T19:28:00.337Z,98294.16
2023-03-06T19:30:03.071Z,98297.66
2023-03-06T19:32:06.114Z,98284.31
2023-03-06T19:34:08.858Z,98311.63
2023-03-06T19:36:14.388Z,98324.75
2023-03-06T19:38:16.994Z,98352.88
2023-03-06T19:40:20.410Z,98328.31
2023-03-06T19:42:23.067Z,98298.88
2023-03-06T19:44:25.787Z,98314.06
2023-03-06T19:46:28.522Z,98371.44
2023-03-06T19:48:30.912Z,98279.31
2023-03-06T19:50:34.797Z,98322.72
2023-03-06T19:52:39.577Z,98298.88
2023-03-06T19:54:41.891Z,98300.31
2023-03-06T19:56:44.325Z,98284.22
2023-03-06T19:58:47.819Z,98362.56
2023-03-06T20:00:50.461Z,98307.44
2023-03-06T20:02:53.446Z,98293.91
2023-03-06T20:04:55.905Z,98327.50
2023-03-06T20:07:00.044Z,98297.16
2023-03-06T20:09:05.686Z,98344.22
2023-03-06T20:11:22.850Z,98280.66
2023-03-06T20:13:25.313Z,98303.47
2023-03-06T20:15:28.430Z,98292.16
2023-03-06T20:17:34.080Z,98303.34
2023-03-06T20:19:37.152Z,98296.59
2023-03-06T20:21:40.002Z,98359.56
2023-03-06T20:23:43.700Z,98317.78
2023-03-06T20:25:46.254Z,98347.75
2023-03-06T20:27:49.173Z,98338.34
2023-03-06T20:29:51.809Z,98342.00
2023-03-06T20:31:55.849Z,98311.03
2023-03-06T20:33:59.828Z,98329.16
2023-03-06T20:36:02.869Z,98294.28
2023-03-06T20:38:05.428Z,98311.31
2023-03-06T20:40:08.947Z,98362.16
2023-03-06T20:42:11.939Z,98336.09
2023-03-06T20:44:18.344Z,98338.63
2023-03-06T20:46:22.490Z,98336.47
2023-03-06T20:48:24.975Z,98281.13
2023-03-06T20:50:28.173Z,98316.28
2023-03-06T20:52:30.943Z,98315.25
2023-03-06T20:54:33.621Z,98334.22
2023-03-06T20:56:39.971Z,98315.25
2023-03-06T20:58:42.961Z,98354.91
2023-03-06T21:00:45.559Z,98272.44
2023-03-06T21:02:48.563Z,98363.84
2023-03-06T21:04:51.144Z,98327.97
2023-03-06T21:06:54.834Z,98373.75
2023-03-06T21:08:59.223Z,98363.34
2023-03-06T21:11:01.620Z,98301.44
2023-03-06T21:13:04.166Z,98390.47
2023-03-06T21:15:07.298Z,98266.28
2023-03-06T21:17:09.751Z,98374.56
2023-03-06T21:19:12.936Z,98365.00
2023-03-06T21:21:18.793Z,98367.34
2023-03-06T21:23:21.248Z,98341.78
2023-03-06T21:25:24.011Z,98346.59
2023-03-06T21:27:26.620Z,98337.69
2023-03-06T21:29:29.013Z,98316.91
2023-03-06T21:31:33.760Z,98357.72
2023-03-06T21:33:37.020Z,98319.78
2023-03-06T21:35:46.308Z,98372.66
2023-03-06T21:37:49.114Z,98293.13
2023-03-06T21:39:51.868Z,98314.06
2023-03-06T21:41:54.196Z,98370.09
2023-03-06T21:43:59.220Z,98273.16
2023-03-06T21:46:01.978Z,98313.41
2023-03-06T21:48:04.909Z,98335.41
2023-03-06T21:50:10.390Z,98347.53
2023-03-06T21:52:12.998Z,98319.28
2023-03-06T21:54:15.861Z,98329.06
2023-03-06T21:56:21.355Z,98312.75
2023-03-06T21:58:24.091Z,98340.69
2023-03-06T22:00:26.621Z,98333.34
2023-03-06T22:02:29.888Z,98351.91
2023-03-06T22:04:32.461Z,98356.47
2023-03-06T22:06:35.680Z,98292.28
2023-03-06T22:08:38.209Z,98370.78
2023-03-06T22:10:41.486Z,98372.03
2023-03-06T22:12:46.161Z,98313.28
2023-03-06T22:14:48.867Z,98318.50
2023-03-06T22:16:52.117Z,98360.94
2023-03-06T22:18:54.746Z,98289.69
2023-03-06T22:20:57.376Z,98257.28
2023-03-06T22:22:59.793Z,98262.97
2023-03-06T22:25:02.406Z,98338.53
2023-03-06T22:27:05.158Z,98265.97
2023-03-06T22:29:07.684Z,98313.44
2023-03-06T22:31:19.205Z,98257.06
2023-03-06T22:33:21.549Z,98265.09
2023-03-06T22:35:24.407Z,98335.22
2023-03-06T22:37:27.163Z,98341.41
2023-03-06T22:39:29.558Z,98312.97
2023-03-06T22:41:32.367Z,98331.59
2023-03-06T22:43:35.664Z,98323.19
2023-03-06T22:45:38.382Z,98330.81
2023-03-06T22:47:40.894Z,98302.50
2023-03-06T22:49:43.266Z,98334.94
2023-03-06T22:51:45.724Z,98330.13
2023-03-06T22:53:49.410Z,98267.97
2023-03-06T22:55:51.729Z,98270.22
2023-03-06T22:57:54.733Z,98323.66
2023-03-06T22:59:56.952Z,98308.78
2023-03-06T23:01:59.546Z,98301.84
2023-03-06T23:04:04.080Z,98283.84
2023-03-06T23:06:13.140Z,98312.69
2023-03-06T23:08:15.481Z,98276.00
2023-03-06T23:10:19.622Z,98292.00
2023-03-06T23:12:42.145Z,98308.41
2023-03-06T23:15:03.404Z,98268.28
2023-03-06T23:17:23.997Z,98270.72
2023-03-06T23:19:44.976Z,98326.66
2023-03-06T23:22:05.851Z,98291.31
2023-03-06T23:24:26.802Z,98262.16
2023-03-06T23:26:31.243Z,98315.34
2023-03-06T23:28:35.253Z,98302.72
2023-03-06T23:30:39.583Z,98301.06
2023-03-06T23:32:43.772Z,98308.53
2023-03-06T23:34:49.074Z,98274.81
2023-03-06T23:36:51.958Z,98315.78
2023-03-06T23:38:56.352Z,98328.72
2023-03-06T23:41:07.471Z,98326.88
2023-03-06T23:43:10.283Z,98330.44
2023-03-06T23:45:12.768Z,98323.19
2023-03-06T23:47:17.534Z,98296.41
2023-03-06T23:49:21.890Z,98307.81
2023-03-06T23:51:24.476Z,98320.66
2023-03-06T23:53:27.062Z,98267.31
2023-03-06T23:55:29.632Z,98308.88
2023-03-06T23:57:32.113Z,98293.84
2023-03-06T23:59:34.261Z,98276.13
